sensor_id;sensor_type;location;lat;lon;timestamp;pressure;altitude;pressure_sealevel;temperature;humidity
74975;BME280;64061;50.836;19.138;2022-10-30T00:00:26;99010.56;;;22.48;62.95
74975;BME280;64061;50.836;19.138;2022-10-30T00:03:50;99025.41;;;22.47;63.07
74975;BME280;64061;50.836;19.138;2022-10-30T00:06:54;99006.16;;;22.47;63.37
74975;BME280;64061;50.836;19.138;2022-10-30T00:09:59;99026.22;;;22.48;63.18
74975;BME280;64061;50.836;19.138;2022-10-30T00:13:02;99030.91;;;22.47;63.23
74975;BME280;64061;50.836;19.138;2022-10-30T00:16:07;99019.09;;;22.47;63.38
74975;BME280;64061;50.836;19.138;2022-10-30T00:19:11;99024.06;;;22.45;63.38
74975;BME280;64061;50.836;19.138;2022-10-30T00:22:15;99015.00;;;22.44;63.39
74975;BME280;64061;50.836;19.138;2022-10-30T00:25:20;99021.59;;;22.43;63.42
74975;BME280;64061;50.836;19.138;2022-10-30T00:28:23;99028.19;;;22.42;63.41
74975;BME280;64061;50.836;19.138;2022-10-30T00:31:27;99019.13;;;22.42;63.49
74975;BME280;64061;50.836;19.138;2022-10-30T00:34:30;99008.97;;;22.42;63.48
74975;BME280;64061;50.836;19.138;2022-10-30T00:37:33;99007.03;;;22.43;63.46
74975;BME280;64061;50.836;19.138;2022-10-30T00:40:39;99007.03;;;22.43;63.73
74975;BME280;64061;50.836;19.138;2022-10-30T00:43:42;99008.44;;;22.40;63.61
74975;BME280;64061;50.836;19.138;2022-10-30T00:46:46;99019.44;;;22.40;63.45
74975;BME280;64061;50.836;19.138;2022-10-30T00:49:53;99014.75;;;22.40;63.52
74975;BME280;64061;50.836;19.138;2022-10-30T00:53:02;99011.47;;;22.38;63.50
74975;BME280;64061;50.836;19.138;2022-10-30T00:56:11;99001.28;;;22.39;63.71
74975;BME280;64061;50.836;19.138;2022-10-30T00:59:21;99012.28;;;22.39;63.58
74975;BME280;64061;50.836;19.138;2022-10-30T01:02:27;99004.66;;;22.36;63.74
74975;BME280;64061;50.836;19.138;2022-10-30T01:05:32;99016.47;;;22.36;63.87
74975;BME280;64061;50.836;19.138;2022-10-30T01:08:37;99000.25;;;22.35;63.89
74975;BME280;64061;50.836;19.138;2022-10-30T01:11:43;98990.09;;;22.35;63.91
74975;BME280;64061;50.836;19.138;2022-10-30T01:14:50;98990.91;;;22.36;64.29
74975;BME280;64061;50.836;19.138;2022-10-30T01:18:18;98998.84;;;22.37;63.77
74975;BME280;64061;50.836;19.138;2022-10-30T01:21:46;99002.72;;;22.36;64.10
74975;BME280;64061;50.836;19.138;2022-10-30T01:25:05;99005.75;;;22.35;63.56
74975;BME280;64061;50.836;19.138;2022-10-30T01:28:49;98993.13;;;22.34;63.86
74975;BME280;64061;50.836;19.138;2022-10-30T01:32:18;98982.13;;;22.34;63.91
74975;BME280;64061;50.836;19.138;2022-10-30T01:35:44;98981.06;;;22.30;63.88
74975;BME280;64061;50.836;19.138;2022-10-30T01:38:59;98982.72;;;22.31;64.10
74975;BME280;64061;50.836;19.138;2022-10-30T01:42:10;98982.72;;;22.31;63.96
74975;BME280;64061;50.836;19.138;2022-10-30T01:46:11;98996.16;;;22.32;63.77
74975;BME280;64061;50.836;19.138;2022-10-30T01:49:54;99002.47;;;22.33;63.68
74975;BME280;64061;50.836;19.138;2022-10-30T01:53:14;99009.38;;;22.30;63.78
74975;BME280;64061;50.836;19.138;2022-10-30T01:56:35;98997.56;;;22.30;63.50
74975;BME280;64061;50.836;19.138;2022-10-30T01:59:50;98988.50;;;22.29;63.75
74975;BME280;64061;50.836;19.138;2022-10-30T02:03:01;98981.66;;;22.27;63.52
74975;BME280;64061;50.836;19.138;2022-10-30T02:06:05;98976.97;;;22.27;63.36
74975;BME280;64061;50.836;19.138;2022-10-30T02:09:08;98976.16;;;22.27;63.69
74975;BME280;64061;50.836;19.138;2022-10-30T02:12:20;98981.13;;;22.25;63.71
74975;BME280;64061;50.836;19.138;2022-10-30T02:15:25;98988.25;;;22.26;63.70
74975;BME280;64061;50.836;19.138;2022-10-30T02:18:32;98982.75;;;22.26;63.71
74975;BME280;64061;50.836;19.138;2022-10-30T02:21:38;98985.50;;;22.26;64.08
74975;BME280;64061;50.836;19.138;2022-10-30T02:24:42;98985.78;;;22.24;63.70
74975;BME280;64061;50.836;19.138;2022-10-30T02:27:45;98988.53;;;22.24;63.83
74975;BME280;64061;50.836;19.138;2022-10-30T02:30:49;98987.72;;;22.24;63.83
74975;BME280;64061;50.836;19.138;2022-10-30T02:33:52;98989.34;;;22.25;63.75
74975;BME280;64061;50.836;19.138;2022-10-30T02:36:57;98978.06;;;22.26;63.83
74975;BME280;64061;50.836;19.138;2022-10-30T02:40:01;98991.00;;;22.26;63.84
74975;BME280;64061;50.836;19.138;2022-10-30T02:43:06;98996.50;;;22.26;63.75
74975;BME280;64061;50.836;19.138;2022-10-30T02:46:09;98985.50;;;22.26;63.99
74975;BME280;64061;50.836;19.138;2022-10-30T02:49:12;98994.84;;;22.25;63.58
74975;BME280;64061;50.836;19.138;2022-10-30T02:52:17;98984.69;;;22.25;63.79
74975;BME280;64061;50.836;19.138;2022-10-30T02:55:20;98986.09;;;22.23;63.68
74975;BME280;64061;50.836;19.138;2022-10-30T02:58:26;98982.53;;;22.22;63.66
74975;BME280;64061;50.836;19.138;2022-10-30T03:01:30;98984.47;;;22.22;63.55
74975;BME280;64061;50.836;19.138;2022-10-30T03:04:34;98984.47;;;22.22;63.61
74975;BME280;64061;50.836;19.138;2022-10-30T03:07:39;98983.84;;;22.25;63.59
74975;BME280;64061;50.836;19.138;2022-10-30T03:10:42;98987.72;;;22.24;63.70
74975;BME280;64061;50.836;19.138;2022-10-30T03:13:47;98972.56;;;22.26;63.75
74975;BME280;64061;50.836;19.138;2022-10-30T03:16:51;98968.19;;;22.25;63.62
74975;BME280;64061;50.836;19.138;2022-10-30T03:19:54;98974.22;;;22.27;63.74
74975;BME280;64061;50.836;19.138;2022-10-30T03:22:59;98974.50;;;22.26;63.78
74975;BME280;64061;50.836;19.138;2022-10-30T03:26:03;98979.47;;;22.24;63.83
74975;BME280;64061;50.836;19.138;2022-10-30T03:29:10;98976.72;;;22.24;63.83
74975;BME280;64061;50.836;19.138;2022-10-30T03:32:14;98975.94;;;22.23;63.68
74975;BME280;64061;50.836;19.138;2022-10-30T03:35:25;98973.47;;;22.22;63.70
74975;BME280;64061;50.836;19.138;2022-10-30T03:38:30;98975.13;;;22.23;63.77
74975;BME280;64061;50.836;19.138;2022-10-30T03:41:34;98974.59;;;22.21;64.03
74975;BME280;64061;50.836;19.138;2022-10-30T03:44:37;98977.34;;;22.21;63.81
74975;BME280;64061;50.836;19.138;2022-10-30T03:47:41;98976.50;;;22.20;63.82
74975;BME280;64061;50.836;19.138;2022-10-30T03:50:45;98977.34;;;22.21;63.79
74975;BME280;64061;50.836;19.138;2022-10-30T03:53:51;98979.78;;;22.22;63.91
74975;BME280;64061;50.836;19.138;2022-10-30T03:56:54;98985.28;;;22.22;63.88
74975;BME280;64061;50.836;19.138;2022-10-30T04:00:01;98984.47;;;22.22;63.76
74975;BME280;64061;50.836;19.138;2022-10-30T04:03:29;98999.31;;;22.21;64.00
74975;BME280;64061;50.836;19.138;2022-10-30T04:06:32;98996.28;;;22.22;63.92
74975;BME280;64061;50.836;19.138;2022-10-30T04:09:37;98989.16;;;22.21;64.03
74975;BME280;64061;50.836;19.138;2022-10-30T04:12:41;98982.00;;;22.20;64.06
74975;BME280;64061;50.836;19.138;2022-10-30T04:15:46;98966.63;;;22.19;63.57
74975;BME280;64061;50.836;19.138;2022-10-30T04:18:58;98972.41;;;22.18;63.95
74975;BME280;64061;50.836;19.138;2022-10-30T04:22:02;98963.06;;;22.19;64.12
74975;BME280;64061;50.836;19.138;2022-10-30T04:25:08;98964.69;;;22.20;63.90
74975;BME280;64061;50.836;19.138;2022-10-30T04:28:12;98966.63;;;22.19;63.74
74975;BME280;64061;50.836;19.138;2022-10-30T04:31:16;98972.41;;;22.18;63.57
74975;BME280;64061;50.836;19.138;2022-10-30T04:34:20;98967.72;;;22.18;63.67
74975;BME280;64061;50.836;19.138;2022-10-30T04:37:23;98970.47;;;22.18;63.50
74975;BME280;64061;50.836;19.138;2022-10-30T04:40:31;98970.47;;;22.18;63.67
74975;BME280;64061;50.836;19.138;2022-10-30T04:43:39;98975.72;;;22.15;63.81
74975;BME280;64061;50.836;19.138;2022-10-30T04:46:42;98968.59;;;22.14;63.64
74975;BME280;64061;50.836;19.138;2022-10-30T04:49:46;98968.59;;;22.14;63.72
74975;BME280;64061;50.836;19.138;2022-10-30T04:52:57;98967.19;;;22.16;63.61
74975;BME280;64061;50.836;19.138;2022-10-30T04:56:03;98975.72;;;22.15;63.77
74975;BME280;64061;50.836;19.138;2022-10-30T04:59:08;98969.72;;;22.13;63.82
74975;BME280;64061;50.836;19.138;2022-10-30T05:02:12;98979.06;;;22.12;63.80
74975;BME280;64061;50.836;19.138;2022-10-30T05:05:16;98983.72;;;22.11;64.02
74975;BME280;64061;50.836;19.138;2022-10-30T05:08:19;98984.56;;;22.12;63.92
74975;BME280;64061;50.836;19.138;2022-10-30T05:11:24;98988.13;;;22.12;63.76
74975;BME280;64061;50.836;19.138;2022-10-30T05:14:28;98997.19;;;22.13;63.82
74975;BME280;64061;50.836;19.138;2022-10-30T05:17:32;98986.19;;;22.13;63.63
74975;BME280;64061;50.836;19.138;2022-10-30T05:20:35;98987.31;;;22.12;63.78
74975;BME280;64061;50.836;19.138;2022-10-30T05:23:39;98978.78;;;22.13;64.33
74975;BME280;64061;50.836;19.138;2022-10-30T05:26:44;98986.19;;;22.13;64.14
74975;BME280;64061;50.836;19.138;2022-10-30T05:29:47;98987.31;;;22.12;64.06
74975;BME280;64061;50.836;19.138;2022-10-30T05:32:56;98989.47;;;22.15;63.87
74975;BME280;64061;50.836;19.138;2022-10-30T05:36:02;98991.13;;;22.16;64.00
74975;BME280;64061;50.836;19.138;2022-10-30T05:39:06;98991.66;;;22.18;63.84
74975;BME280;64061;50.836;19.138;2022-10-30T05:42:13;98995.47;;;22.22;63.96
74975;BME280;64061;50.836;19.138;2022-10-30T05:45:19;98990.78;;;22.22;63.85
74975;BME280;64061;50.836;19.138;2022-10-30T05:48:23;98994.84;;;22.25;63.69
74975;BME280;64061;50.836;19.138;2022-10-30T05:51:26;98989.59;;;22.28;63.56
74975;BME280;64061;50.836;19.138;2022-10-30T05:54:34;98992.06;;;22.30;63.58
74975;BME280;64061;50.836;19.138;2022-10-30T05:57:54;98999.72;;;22.33;63.29
74975;BME280;64061;50.836;19.138;2022-10-30T06:01:04;99005.75;;;22.35;62.99
74975;BME280;64061;50.836;19.138;2022-10-30T06:04:15;99006.88;;;22.34;62.79
74975;BME280;64061;50.836;19.138;2022-10-30T06:07:18;98998.03;;;22.37;63.04
74975;BME280;64061;50.836;19.138;2022-10-30T06:10:21;98999.91;;;22.42;62.78
74975;BME280;64061;50.836;19.138;2022-10-30T06:13:48;99008.91;;;22.47;62.96
74975;BME280;64061;50.836;19.138;2022-10-30T06:16:56;99007.19;;;22.51;62.66
74975;BME280;64061;50.836;19.138;2022-10-30T06:20:28;98998.59;;;22.58;63.60
74975;BME280;64061;50.836;19.138;2022-10-30T06:23:50;98986.75;;;22.62;63.75
74975;BME280;64061;50.836;19.138;2022-10-30T06:27:20;98977.28;;;22.68;64.25
74975;BME280;64061;50.836;19.138;2022-10-30T06:30:25;98989.63;;;22.76;64.27
74975;BME280;64061;50.836;19.138;2022-10-30T06:33:29;98995.03;;;22.81;64.35
74975;BME280;64061;50.836;19.138;2022-10-30T06:36:33;98998.25;;;22.88;64.54
74975;BME280;64061;50.836;19.138;2022-10-30T06:39:38;99001.75;;;22.94;64.37
74975;BME280;64061;50.836;19.138;2022-10-30T06:43:13;99005.00;;;22.96;64.21
74975;BME280;64061;50.836;19.138;2022-10-30T06:46:22;99006.06;;;23.00;64.35
74975;BME280;64061;50.836;19.138;2022-10-30T06:49:31;99018.91;;;23.04;64.16
74975;BME280;64061;50.836;19.138;2022-10-30T06:52:35;99018.84;;;23.09;64.57
74975;BME280;64061;50.836;19.138;2022-10-30T06:55:38;99031.44;;;23.16;63.81
74975;BME280;64061;50.836;19.138;2022-10-30T06:59:04;99033.28;;;23.20;63.46
74975;BME280;64061;50.836;19.138;2022-10-30T07:02:28;99027.78;;;23.20;63.15
74975;BME280;64061;50.836;19.138;2022-10-30T07:05:37;99034.13;;;23.21;63.20
74975;BME280;64061;50.836;19.138;2022-10-30T07:08:40;99033.81;;;23.22;62.88
74975;BME280;64061;50.836;19.138;2022-10-30T07:11:45;99029.13;;;23.23;62.86
74975;BME280;64061;50.836;19.138;2022-10-30T07:15:03;99021.16;;;23.21;62.84
74975;BME280;64061;50.836;19.138;2022-10-30T07:18:14;99022.28;;;23.20;62.78
74975;BME280;64061;50.836;19.138;2022-10-30T07:21:17;99021.47;;;23.20;62.71
74975;BME280;64061;50.836;19.138;2022-10-30T07:24:20;99010.69;;;23.23;62.90
74975;BME280;64061;50.836;19.138;2022-10-30T07:27:41;99018.06;;;23.28;62.12
74975;BME280;64061;50.836;19.138;2022-10-30T07:31:05;99015.25;;;22.66;58.34
74975;BME280;64061;50.836;19.138;2022-10-30T07:34:28;99018.97;;;22.04;58.59
74975;BME280;64061;50.836;19.138;2022-10-30T07:37:51;99020.91;;;21.36;57.40
74975;BME280;64061;50.836;19.138;2022-10-30T07:40:55;99018.47;;;20.75;57.67
74975;BME280;64061;50.836;19.138;2022-10-30T07:44:22;99017.81;;;20.23;58.98
74975;BME280;64061;50.836;19.138;2022-10-30T07:47:49;99021.44;;;19.83;59.85
74975;BME280;64061;50.836;19.138;2022-10-30T07:51:01;99012.94;;;19.75;60.24
74975;BME280;64061;50.836;19.138;2022-10-30T07:54:05;99008.28;;;19.75;60.11
74975;BME280;64061;50.836;19.138;2022-10-30T07:57:09;99015.38;;;19.76;60.33
74975;BME280;64061;50.836;19.138;2022-10-30T08:00:36;99004.97;;;19.73;60.19
74975;BME280;64061;50.836;19.138;2022-10-30T08:03:57;99002.00;;;19.70;60.38
74975;BME280;64061;50.836;19.138;2022-10-30T08:07:06;99008.28;;;19.70;60.17
74975;BME280;64061;50.836;19.138;2022-10-30T08:10:14;99004.44;;;19.76;60.18
74975;BME280;64061;50.836;19.138;2022-10-30T08:13:17;98997.88;;;19.82;60.01
74975;BME280;64061;50.836;19.138;2022-10-30T08:16:25;98990.47;;;19.88;59.93
74975;BME280;64061;50.836;19.138;2022-10-30T08:19:28;98986.34;;;19.90;59.46
74975;BME280;64061;50.836;19.138;2022-10-30T08:22:34;98976.78;;;19.88;59.58
74975;BME280;64061;50.836;19.138;2022-10-30T08:25:37;98986.63;;;19.94;59.57
74975;BME280;64061;50.836;19.138;2022-10-30T08:28:42;98996.19;;;20.02;59.79
74975;BME280;64061;50.836;19.138;2022-10-30T08:31:47;99003.31;;;20.08;59.14
74975;BME280;64061;50.836;19.138;2022-10-30T08:34:56;98992.31;;;20.13;59.25
74975;BME280;64061;50.836;19.138;2022-10-30T08:38:01;98997.53;;;20.19;59.18
74975;BME280;64061;50.836;19.138;2022-10-30T08:41:05;98993.38;;;20.27;59.05
74975;BME280;64061;50.836;19.138;2022-10-30T08:44:14;98999.41;;;20.34;58.84
74975;BME280;64061;50.836;19.138;2022-10-30T08:47:55;98995.56;;;20.40;58.50
74975;BME280;64061;50.836;19.138;2022-10-30T08:51:02;98988.44;;;20.49;58.51
74975;BME280;64061;50.836;19.138;2022-10-30T08:54:13;98996.34;;;20.61;58.26
74975;BME280;64061;50.836;19.138;2022-10-30T08:57:19;99001.50;;;20.68;58.00
74975;BME280;64061;50.836;19.138;2022-10-30T09:00:26;99002.56;;;20.77;57.77
74975;BME280;64061;50.836;19.138;2022-10-30T09:03:49;99008.84;;;20.82;57.68
74975;BME280;64061;50.836;19.138;2022-10-30T09:07:22;99011.28;;;20.89;57.46
74975;BME280;64061;50.836;19.138;2022-10-30T09:10:54;99008.19;;;21.01;57.49
74975;BME280;64061;50.836;19.138;2022-10-30T09:14:00;98996.91;;;21.07;57.26
74975;BME280;64061;50.836;19.138;2022-10-30T09:17:04;98994.97;;;21.13;57.61
74975;BME280;64061;50.836;19.138;2022-10-30T09:20:10;98995.50;;;21.15;56.55
74975;BME280;64061;50.836;19.138;2022-10-30T09:23:15;98995.22;;;21.16;56.83
74975;BME280;64061;50.836;19.138;2022-10-30T09:26:25;98986.66;;;21.18;56.55
74975;BME280;64061;50.836;19.138;2022-10-30T09:29:41;98994.09;;;21.17;56.78
74975;BME280;64061;50.836;19.138;2022-10-30T09:32:58;98986.66;;;21.18;56.65
74975;BME280;64061;50.836;19.138;2022-10-30T09:36:33;98986.41;;;21.19;56.80
74975;BME280;64061;50.836;19.138;2022-10-30T09:39:39;98984.75;;;21.23;56.23
74975;BME280;64061;50.836;19.138;2022-10-30T09:42:45;98992.97;;;21.28;56.04
74975;BME280;64061;50.836;19.138;2022-10-30T09:46:03;98993.19;;;21.32;56.09
74975;BME280;64061;50.836;19.138;2022-10-30T09:49:23;99006.06;;;21.37;56.11
74975;BME280;64061;50.836;19.138;2022-10-30T09:52:44;99002.22;;;21.38;56.15
74975;BME280;64061;50.836;19.138;2022-10-30T09:56:03;99010.44;;;21.43;55.93
74975;BME280;64061;50.836;19.138;2022-10-30T09:59:25;99007.09;;;21.46;55.74
74975;BME280;64061;50.836;19.138;2022-10-30T10:02:51;99006.28;;;21.45;55.61
74975;BME280;64061;50.836;19.138;2022-10-30T10:06:16;99000.84;;;21.40;55.66
74975;BME280;64061;50.836;19.138;2022-10-30T10:09:51;98996.72;;;21.38;55.70
74975;BME280;64061;50.836;19.138;2022-10-30T10:13:26;98990.13;;;21.39;55.55
74975;BME280;64061;50.836;19.138;2022-10-30T10:16:42;98976.69;;;21.37;55.55
74975;BME280;64061;50.836;19.138;2022-10-30T10:19:54;98980.25;;;21.38;55.10
74975;BME280;64061;50.836;19.138;2022-10-30T10:23:08;98984.13;;;21.37;55.22
74975;BME280;64061;50.836;19.138;2022-10-30T10:26:26;98982.47;;;21.36;55.19
74975;BME280;64061;50.836;19.138;2022-10-30T10:29:40;98987.97;;;21.36;54.97
74975;BME280;64061;50.836;19.138;2022-10-30T10:33:14;98991.53;;;21.36;54.99
74975;BME280;64061;50.836;19.138;2022-10-30T10:36:34;98983.09;;;21.27;55.30
74975;BME280;64061;50.836;19.138;2022-10-30T10:39:54;98988.88;;;21.26;55.04
74975;BME280;64061;50.836;19.138;2022-10-30T10:43:20;98980.66;;;21.21;55.10
74975;BME280;64061;50.836;19.138;2022-10-30T10:46:44;98999.84;;;21.21;55.51
74975;BME280;64061;50.836;19.138;2022-10-30T10:50:17;98989.16;;;21.19;55.34
74975;BME280;64061;50.836;19.138;2022-10-30T10:53:32;98977.13;;;21.15;54.99
74975;BME280;64061;50.836;19.138;2022-10-30T10:56:44;98984.28;;;21.06;54.97
74975;BME280;64061;50.836;19.138;2022-10-30T10:59:53;98976.34;;;21.05;54.96
74975;BME280;64061;50.836;19.138;2022-10-30T11:03:05;98973.31;;;21.06;55.17
74975;BME280;64061;50.836;19.138;2022-10-30T11:06:23;98985.38;;;21.05;55.47
74975;BME280;64061;50.836;19.138;2022-10-30T11:09:29;98983.22;;;21.02;55.30
74975;BME280;64061;50.836;19.138;2022-10-30T11:12:34;98979.91;;;21.05;55.41
74975;BME280;64061;50.836;19.138;2022-10-30T11:15:46;98985.38;;;21.10;55.37
74975;BME280;64061;50.836;19.138;2022-10-30T11:19:00;98977.69;;;21.07;55.61
74975;BME280;64061;50.836;19.138;2022-10-30T11:22:14;98983.16;;;21.12;55.65
74975;BME280;64061;50.836;19.138;2022-10-30T11:25:33;98978.22;;;21.14;55.21
74975;BME280;64061;50.836;19.138;2022-10-30T11:28:41;98974.38;;;21.15;55.05
74975;BME280;64061;50.836;19.138;2022-10-30T11:32:01;98969.97;;;21.14;55.09
74975;BME280;64061;50.836;19.138;2022-10-30T11:35:11;98971.63;;;21.15;55.10
74975;BME280;64061;50.836;19.138;2022-10-30T11:38:19;98968.28;;;21.18;55.08
74975;BME280;64061;50.836;19.138;2022-10-30T11:41:22;98970.22;;;21.23;55.02
74975;BME280;64061;50.836;19.138;2022-10-30T11:44:34;98971.25;;;21.32;55.06
74975;BME280;64061;50.836;19.138;2022-10-30T11:47:40;98971.75;;;21.39;54.95
74975;BME280;64061;50.836;19.138;2022-10-30T11:50:46;98974.16;;;21.46;54.65
74975;BME280;64061;50.836;19.138;2022-10-30T11:53:53;98970.28;;;21.52;54.35
74975;BME280;64061;50.836;19.138;2022-10-30T11:56:57;98971.56;;;21.59;54.33
74975;BME280;64061;50.836;19.138;2022-10-30T12:00:03;98969.03;;;21.68;54.20
74975;BME280;64061;50.836;19.138;2022-10-30T12:03:27;98960.44;;;21.75;53.87
74975;BME280;64061;50.836;19.138;2022-10-30T12:06:32;98954.13;;;21.74;53.86
74975;BME280;64061;50.836;19.138;2022-10-30T12:09:46;98957.09;;;21.83;53.46
74975;BME280;64061;50.836;19.138;2022-10-30T12:12:52;98953.25;;;21.84;53.54
74975;BME280;64061;50.836;19.138;2022-10-30T12:16:09;98944.66;;;21.90;53.84
74975;BME280;64061;50.836;19.138;2022-10-30T12:19:20;98937.75;;;21.93;53.44
74975;BME280;64061;50.836;19.138;2022-10-30T12:22:34;98932.50;;;21.96;53.70
74975;BME280;64061;50.836;19.138;2022-10-30T12:25:39;98931.94;;;21.99;53.46
74975;BME280;64061;50.836;19.138;2022-10-30T12:28:54;98933.28;;;22.02;53.20
74975;BME280;64061;50.836;19.138;2022-10-30T12:32:06;98935.72;;;22.09;52.94
74975;BME280;64061;50.836;19.138;2022-10-30T12:35:38;98927.09;;;22.15;52.96
74975;BME280;64061;50.836;19.138;2022-10-30T12:38:50;98928.19;;;22.14;53.03
74975;BME280;64061;50.836;19.138;2022-10-30T12:42:02;98931.47;;;22.16;52.69
74975;BME280;64061;50.836;19.138;2022-10-30T12:45:12;98926.22;;;22.20;52.92
74975;BME280;64061;50.836;19.138;2022-10-30T12:48:29;98928.91;;;22.25;52.92
74975;BME280;64061;50.836;19.138;2022-10-30T12:51:42;98931.34;;;22.26;52.81
74975;BME280;64061;50.836;19.138;2022-10-30T12:54:57;98923.63;;;22.28;52.95
74975;BME280;64061;50.836;19.138;2022-10-30T12:58:09;98922.78;;;22.33;53.23
74975;BME280;64061;50.836;19.138;2022-10-30T13:01:24;98922.47;;;22.34;52.57
74975;BME280;64061;50.836;19.138;2022-10-30T13:04:38;98915.88;;;22.35;52.93
74975;BME280;64061;50.836;19.138;2022-10-30T13:07:50;98912.31;;;22.35;52.84
74975;BME280;64061;50.836;19.138;2022-10-30T13:11:08;98916.44;;;22.32;52.90
74975;BME280;64061;50.836;19.138;2022-10-30T13:14:21;98905.16;;;22.34;53.02
74975;BME280;64061;50.836;19.138;2022-10-30T13:17:33;98901.84;;;22.37;52.59
74975;BME280;64061;50.836;19.138;2022-10-30T13:20:37;98899.09;;;22.37;52.79
74975;BME280;64061;50.836;19.138;2022-10-30T13:23:47;98897.44;;;22.36;52.62
74975;BME280;64061;50.836;19.138;2022-10-30T13:26:57;98890.06;;;22.31;52.56
74975;BME280;64061;50.836;19.138;2022-10-30T13:30:13;98890.38;;;22.30;51.88
74975;BME280;64061;50.836;19.138;2022-10-30T13:33:26;98892.88;;;22.26;52.30
74975;BME280;64061;50.836;19.138;2022-10-30T13:36:44;98889.03;;;22.27;52.55
74975;BME280;64061;50.836;19.138;2022-10-30T13:40:04;98889.84;;;22.28;52.28
74975;BME280;64061;50.836;19.138;2022-10-30T13:43:23;98890.41;;;22.25;52.30
74975;BME280;64061;50.836;19.138;2022-10-30T13:46:54;98887.38;;;22.26;51.90
74975;BME280;64061;50.836;19.138;2022-10-30T13:50:26;98879.44;;;22.25;51.94
74975;BME280;64061;50.836;19.138;2022-10-30T13:53:41;98876.25;;;22.18;52.00
74975;BME280;64061;50.836;19.138;2022-10-30T13:56:50;98886.41;;;22.17;52.10
74975;BME280;64061;50.836;19.138;2022-10-30T14:00:04;98883.94;;;22.16;52.21
74975;BME280;64061;50.836;19.138;2022-10-30T14:03:33;98882.59;;;22.13;52.24
74975;BME280;64061;50.836;19.138;2022-10-30T14:06:55;98886.28;;;22.03;52.41
74975;BME280;64061;50.836;19.138;2022-10-30T14:10:14;98877.00;;;21.99;52.43
74975;BME280;64061;50.836;19.138;2022-10-30T14:13:26;98873.19;;;21.95;52.58
74975;BME280;64061;50.836;19.138;2022-10-30T14:16:33;98876.50;;;21.92;52.81
74975;BME280;64061;50.836;19.138;2022-10-30T14:20:24;98878.69;;;21.95;52.45
74975;BME280;64061;50.836;19.138;2022-10-30T14:23:31;98878.19;;;21.88;52.82
74975;BME280;64061;50.836;19.138;2022-10-30T14:26:39;98877.38;;;21.88;53.12
74975;BME280;64061;50.836;19.138;2022-10-30T14:29:54;98876.56;;;21.87;53.28
74975;BME280;64061;50.836;19.138;2022-10-30T14:32:57;98884.78;;;21.87;53.10
74975;BME280;64061;50.836;19.138;2022-10-30T14:36:17;98874.34;;;21.89;53.22
74975;BME280;64061;50.836;19.138;2022-10-30T14:39:27;98876.03;;;21.85;53.26
74975;BME280;64061;50.836;19.138;2022-10-30T14:42:38;98877.13;;;21.84;53.23
74975;BME280;64061;50.836;19.138;2022-10-30T14:45:52;98871.72;;;21.79;53.51
74975;BME280;64061;50.836;19.138;2022-10-30T14:49:08;98875.03;;;21.76;53.70
74975;BME280;64061;50.836;19.138;2022-10-30T14:52:36;98871.75;;;21.74;53.05
74975;BME280;64061;50.836;19.138;2022-10-30T14:55:54;98869.59;;;21.71;53.85
74975;BME280;64061;50.836;19.138;2022-10-30T14:59:16;98874.88;;;21.67;53.82
74975;BME280;64061;50.836;19.138;2022-10-30T15:02:33;98866.38;;;21.64;54.03
74975;BME280;64061;50.836;19.138;2022-10-30T15:05:52;98874.16;;;21.57;53.89
74975;BME280;64061;50.836;19.138;2022-10-30T15:09:21;98876.91;;;21.57;54.05
74975;BME280;64061;50.836;19.138;2022-10-30T15:12:44;98876.16;;;21.46;53.98
74975;BME280;64061;50.836;19.138;2022-10-30T15:15:58;98884.75;;;21.40;54.51
74975;BME280;64061;50.836;19.138;2022-10-30T15:19:06;98886.72;;;21.34;54.57
74975;BME280;64061;50.836;19.138;2022-10-30T15:22:17;98885.97;;;21.28;54.67
74975;BME280;64061;50.836;19.138;2022-10-30T15:25:28;98882.72;;;21.21;55.07
74975;BME280;64061;50.836;19.138;2022-10-30T15:28:37;98897.03;;;21.13;55.10
74975;BME280;64061;50.836;19.138;2022-10-30T15:31:40;98896.22;;;21.08;55.75
74975;BME280;64061;50.836;19.138;2022-10-30T15:34:51;98889.97;;;21.02;55.95
74975;BME280;64061;50.836;19.138;2022-10-30T15:37:58;98885.09;;;20.94;56.27
74975;BME280;64061;50.836;19.138;2022-10-30T15:41:04;98887.28;;;20.92;56.38
74975;BME280;64061;50.836;19.138;2022-10-30T15:44:15;98885.91;;;20.94;56.51
74975;BME280;64061;50.836;19.138;2022-10-30T15:47:21;98881.50;;;20.98;56.71
74975;BME280;64061;50.836;19.138;2022-10-30T15:50:25;98887.81;;;20.94;56.70
74975;BME280;64061;50.836;19.138;2022-10-30T15:53:35;98889.75;;;20.93;56.66
74975;BME280;64061;50.836;19.138;2022-10-30T15:56:44;98888.97;;;20.88;56.64
74975;BME280;64061;50.836;19.138;2022-10-30T16:00:19;98886.84;;;20.80;56.81
74975;BME280;64061;50.836;19.138;2022-10-30T16:03:25;98881.97;;;20.72;57.13
74975;BME280;64061;50.836;19.138;2022-10-30T16:06:30;98878.69;;;20.64;57.03
74975;BME280;64061;50.836;19.138;2022-10-30T16:09:33;98874.66;;;20.57;57.21
74975;BME280;64061;50.836;19.138;2022-10-30T16:12:38;98873.28;;;20.54;57.63
74975;BME280;64061;50.836;19.138;2022-10-30T16:15:42;98878.22;;;20.57;57.70
74975;BME280;64061;50.836;19.138;2022-10-30T16:18:48;98876.00;;;20.59;57.61
74975;BME280;64061;50.836;19.138;2022-10-30T16:21:56;98879.84;;;20.63;57.25
74975;BME280;64061;50.836;19.138;2022-10-30T16:25:05;98873.53;;;20.63;57.65
74975;BME280;64061;50.836;19.138;2022-10-30T16:28:24;98876.00;;;20.59;57.44
74975;BME280;64061;50.836;19.138;2022-10-30T16:31:35;98871.94;;;20.52;57.89
74975;BME280;64061;50.836;19.138;2022-10-30T16:34:39;98872.47;;;20.54;57.93
74975;BME280;64061;50.836;19.138;2022-10-30T16:37:45;98874.66;;;20.52;57.74
74975;BME280;64061;50.836;19.138;2022-10-30T16:40:49;98870.34;;;20.46;58.18